createdAt,value
2022-10-09T00:00:35.813Z,77.13
2022-10-09T00:03:25.096Z,76.57
2022-10-09T00:06:07.965Z,76.76
2022-10-09T00:08:56.114Z,76.98
2022-10-09T00:11:40.817Z,76.22
2022-10-09T00:14:29.087Z,76.96
2022-10-09T00:17:11.191Z,76.54
2022-10-09T00:20:06.660Z,76.60
2022-10-09T00:22:55.836Z,76.42
2022-10-09T00:25:44.794Z,76.34
2022-10-09T00:28:29.322Z,75.99
2022-10-09T00:31:22.882Z,76.26
2022-10-09T00:34:04.975Z,76.25
2022-10-09T00:36:53.871Z,76.56
2022-10-09T00:39:43.079Z,76.52
2022-10-09T00:42:24.815Z,76.21
2022-10-09T00:45:07.747Z,76.48
2022-10-09T00:48:03.778Z,77.42
2022-10-09T00:50:59.576Z,77.07
2022-10-09T00:53:48.833Z,76.88
2022-10-09T00:56:38.234Z,77.09
2022-10-09T00:59:21.783Z,76.75
2022-10-09T01:02:10.773Z,76.41
2022-10-09T01:04:59.862Z,76.50
2022-10-09T01:08:00.167Z,76.15
2022-10-09T01:11:06.834Z,75.77
2022-10-09T01:13:59.462Z,76.00
2022-10-09T01:16:56.792Z,75.89
2022-10-09T01:20:28.653Z,75.34
2022-10-09T01:23:41.103Z,75.92
2022-10-09T01:26:32.073Z,76.05
2022-10-09T01:29:23.810Z,75.66
2022-10-09T01:32:14.789Z,74.96
2022-10-09T01:35:06.760Z,75.36
2022-10-09T01:37:51.793Z,75.38
2022-10-09T01:40:34.230Z,75.46
2022-10-09T01:43:22.879Z,76.25
2022-10-09T01:46:31.160Z,75.75
2022-10-09T01:49:45.883Z,75.33
2022-10-09T01:52:53.233Z,74.68
2022-10-09T01:55:54.792Z,74.02
2022-10-09T01:59:01.860Z,74.96
2022-10-09T02:01:52.203Z,74.02
2022-10-09T02:04:35.799Z,74.75
2022-10-09T02:07:26.091Z,74.79
2022-10-09T02:10:11.804Z,74.77
2022-10-09T02:13:08.791Z,74.60
2022-10-09T02:16:09.127Z,72.83
2022-10-09T02:19:09.841Z,72.43
2022-10-09T02:22:08.072Z,72.58
2022-10-09T02:24:52.223Z,71.78
2022-10-09T02:27:42.063Z,71.68
2022-10-09T02:30:25.804Z,72.65
2022-10-09T02:33:14.723Z,72.43
2022-10-09T02:36:03.848Z,71.97
2022-10-09T02:38:52.093Z,70.92
2022-10-09T02:41:35.863Z,71.05
2022-10-09T02:44:24.085Z,71.38
2022-10-09T02:47:06.868Z,70.88
2022-10-09T02:49:55.168Z,71.10
2022-10-09T02:52:37.806Z,70.91
2022-10-09T02:55:26.056Z,69.96
2022-10-09T02:58:08.837Z,71.93
2022-10-09T03:00:59.127Z,70.39
2022-10-09T03:03:41.783Z,69.44
2022-10-09T03:06:26.745Z,70.40
2022-10-09T03:09:15.787Z,69.76
2022-10-09T03:12:04.103Z,69.25
2022-10-09T03:14:46.790Z,69.34
2022-10-09T03:17:35.049Z,68.86
2022-10-09T03:20:24.789Z,68.59
2022-10-09T03:23:07.071Z,68.66
2022-10-09T03:26:11.797Z,66.98
2022-10-09T03:29:03.788Z,66.38
2022-10-09T03:31:53.641Z,66.80
2022-10-09T03:34:43.194Z,64.12
2022-10-09T03:37:31.067Z,65.63
2022-10-09T03:40:13.856Z,65.63
2022-10-09T03:43:02.110Z,65.35
2022-10-09T03:45:48.785Z,63.11
2022-10-09T03:48:37.795Z,63.70
2022-10-09T03:51:20.103Z,65.09
2022-10-09T03:54:08.783Z,64.27
2022-10-09T03:56:51.068Z,62.04
2022-10-09T03:59:39.975Z,64.08
2022-10-09T04:02:22.104Z,62.68
2022-10-09T04:05:10.859Z,63.10
2022-10-09T04:07:53.198Z,61.80
2022-10-09T04:10:41.849Z,60.46
2022-10-09T04:13:24.081Z,61.72
2022-10-09T04:16:12.966Z,60.49
2022-10-09T04:18:55.553Z,59.87
2022-10-09T04:21:50.778Z,60.79
2022-10-09T04:24:32.977Z,58.57
2022-10-09T04:27:22.836Z,59.23
2022-10-09T04:30:12.699Z,58.35
2022-10-09T04:33:01.806Z,59.50
2022-10-09T04:35:52.697Z,57.88
2022-10-09T04:38:41.786Z,58.52
2022-10-09T04:41:23.955Z,57.59
2022-10-09T04:44:15.811Z,56.97
2022-10-09T04:46:57.956Z,56.94
2022-10-09T04:49:48.864Z,55.70
2022-10-09T04:52:41.063Z,55.55
2022-10-09T04:55:33.174Z,54.33
2022-10-09T04:58:22.340Z,54.72
2022-10-09T05:01:03.860Z,56.33
2022-10-09T05:03:53.108Z,54.93
2022-10-09T05:06:35.995Z,53.69
2022-10-09T05:09:25.019Z,54.61
2022-10-09T05:12:09.104Z,54.66
2022-10-09T05:14:57.828Z,53.16
2022-10-09T05:17:41.228Z,54.20
2022-10-09T05:20:36.832Z,54.34
2022-10-09T05:23:26.240Z,52.39
2022-10-09T05:26:11.779Z,52.02
2022-10-09T05:29:01.824Z,52.18
2022-10-09T05:31:49.146Z,52.59
2022-10-09T05:34:38.830Z,51.10
2022-10-09T05:37:22.856Z,52.17
2022-10-09T05:40:11.779Z,51.97
2022-10-09T05:42:57.191Z,54.38
2022-10-09T05:45:45.832Z,52.80
2022-10-09T05:48:29.070Z,53.75
2022-10-09T05:51:26.782Z,54.41
2022-10-09T05:54:09.091Z,54.48
2022-10-09T05:56:57.828Z,53.86
2022-10-09T05:59:40.058Z,53.98
2022-10-09T06:02:28.887Z,53.00
2022-10-09T06:05:11.220Z,52.23
2022-10-09T06:07:59.796Z,52.35
2022-10-09T06:10:42.131Z,50.59
2022-10-09T06:13:30.758Z,54.05
2022-10-09T06:16:20.829Z,54.34
2022-10-09T06:19:10.247Z,53.73
2022-10-09T06:21:59.780Z,53.17
2022-10-09T06:24:42.202Z,52.83
2022-10-09T06:27:30.803Z,52.50
2022-10-09T06:30:13.200Z,51.49
2022-10-09T06:33:01.779Z,52.72
2022-10-09T06:35:44.121Z,54.11
2022-10-09T06:38:35.830Z,53.73
2022-10-09T06:41:23.132Z,51.10
2022-10-09T06:44:16.864Z,53.47
2022-10-09T06:46:59.240Z,52.20
2022-10-09T06:49:47.778Z,53.60
2022-10-09T06:52:30.027Z,53.33
2022-10-09T06:55:18.779Z,52.55
2022-10-09T06:58:01.117Z,53.25
2022-10-09T07:00:49.831Z,52.39
2022-10-09T07:03:32.309Z,53.50
2022-10-09T07:06:26.797Z,52.35
2022-10-09T07:09:13.185Z,53.97
2022-10-09T07:12:01.781Z,52.99
2022-10-09T07:14:44.209Z,51.64
2022-10-09T07:17:34.761Z,53.62
2022-10-09T07:20:30.833Z,52.69
2022-10-09T07:23:19.223Z,54.03
2022-10-09T07:26:01.793Z,53.75
2022-10-09T07:28:45.036Z,53.69
2022-10-09T07:31:33.777Z,54.13
2022-10-09T07:34:23.058Z,54.39
2022-10-09T07:37:05.830Z,55.31
2022-10-09T07:39:54.068Z,53.32
2022-10-09T07:42:36.842Z,53.63
2022-10-09T07:45:32.166Z,54.19
2022-10-09T07:48:20.776Z,54.98
2022-10-09T07:51:39.880Z,54.79
2022-10-09T07:54:22.257Z,53.97
2022-10-09T07:57:10.769Z,52.82
2022-10-09T07:59:53.198Z,53.27
2022-10-09T08:02:42.219Z,53.16
2022-10-09T08:05:25.214Z,53.39
2022-10-09T08:08:14.790Z,53.77
2022-10-09T08:10:57.161Z,52.94
2022-10-09T08:13:46.889Z,52.84
2022-10-09T08:16:31.277Z,53.65
2022-10-09T08:19:19.868Z,53.28
2022-10-09T08:22:14.636Z,54.44
2022-10-09T08:25:03.786Z,56.28
2022-10-09T08:27:46.055Z,55.08
2022-10-09T08:30:34.880Z,54.12
2022-10-09T08:33:21.261Z,55.12
2022-10-09T08:36:15.834Z,56.65
2022-10-09T08:38:59.116Z,57.24
2022-10-09T08:41:49.756Z,57.81
2022-10-09T08:44:50.039Z,54.49
2022-10-09T08:47:44.845Z,54.60
2022-10-09T08:50:30.079Z,54.89
2022-10-09T08:53:46.792Z,54.52
2022-10-09T08:56:31.123Z,54.47
2022-10-09T08:59:20.798Z,53.03
2022-10-09T09:02:23.116Z,54.23
2022-10-09T09:05:21.790Z,53.20
2022-10-09T09:08:18.781Z,53.35
2022-10-09T09:11:24.085Z,53.03
2022-10-09T09:14:25.167Z,52.87
2022-10-09T09:17:22.058Z,51.94
2022-10-09T09:20:09.769Z,52.20
2022-10-09T09:22:59.068Z,52.85
2022-10-09T09:25:47.783Z,51.78
2022-10-09T09:28:43.206Z,52.66
2022-10-09T09:31:36.893Z,54.16
2022-10-09T09:34:47.103Z,54.57
2022-10-09T09:37:28.845Z,54.16
2022-10-09T09:40:36.091Z,53.89
2022-10-09T09:43:26.880Z,53.41
2022-10-09T09:46:23.118Z,53.05
2022-10-09T09:49:09.364Z,54.12
2022-10-09T09:51:59.791Z,53.28
2022-10-09T09:54:43.537Z,52.75
2022-10-09T09:57:45.858Z,52.60
2022-10-09T10:00:31.162Z,53.65
2022-10-09T10:03:25.856Z,54.76
2022-10-09T10:06:09.061Z,54.45
2022-10-09T10:09:07.792Z,54.67
2022-10-09T10:12:04.540Z,52.99
2022-10-09T10:14:59.143Z,53.94
2022-10-09T10:17:45.072Z,52.47
2022-10-09T10:20:34.774Z,53.52
2022-10-09T10:23:50.146Z,52.98
2022-10-09T10:26:43.834Z,54.27
2022-10-09T10:29:46.063Z,54.38
2022-10-09T10:32:57.762Z,55.12
2022-10-09T10:35:47.070Z,55.00
2022-10-09T10:38:35.826Z,54.43
2022-10-09T10:41:32.259Z,56.02
2022-10-09T10:44:46.838Z,54.70
2022-10-09T10:47:37.094Z,53.50
2022-10-09T10:50:28.844Z,54.89
2022-10-09T10:53:32.075Z,57.11
2022-10-09T10:56:39.832Z,56.27
2022-10-09T10:59:49.054Z,55.95
2022-10-09T11:02:58.850Z,56.10
2022-10-09T11:06:03.096Z,56.45
2022-10-09T11:09:13.848Z,55.86
2022-10-09T11:12:12.587Z,57.63
2022-10-09T11:15:18.118Z,57.72
2022-10-09T11:18:25.168Z,57.18
2022-10-09T11:21:25.774Z,56.88
2022-10-09T11:24:29.251Z,56.12
2022-10-09T11:27:24.853Z,56.04
2022-10-09T11:30:23.272Z,57.26
2022-10-09T11:33:18.796Z,55.96
2022-10-09T11:36:19.730Z,56.01
2022-10-09T11:39:25.778Z,56.83
2022-10-09T11:42:11.371Z,59.00
2022-10-09T11:45:04.837Z,59.21
2022-10-09T11:48:13.179Z,59.63
2022-10-09T11:51:29.768Z,59.75
2022-10-09T11:54:18.686Z,59.58
2022-10-09T11:57:15.658Z,60.14
2022-10-09T12:00:08.193Z,59.90
2022-10-09T12:02:58.828Z,59.81
2022-10-09T12:05:48.386Z,60.75
2022-10-09T12:08:45.830Z,61.07
2022-10-09T12:11:35.098Z,61.25
2022-10-09T12:14:20.346Z,59.81
2022-10-09T12:17:10.045Z,61.36
2022-10-09T12:19:53.856Z,61.33
2022-10-09T12:23:14.298Z,60.88
2022-10-09T12:26:05.821Z,60.90
2022-10-09T12:29:03.085Z,61.18
2022-10-09T12:31:52.797Z,59.92
2022-10-09T12:34:45.103Z,60.88
2022-10-09T12:37:43.853Z,61.80
2022-10-09T12:40:34.131Z,62.42
2022-10-09T12:43:26.804Z,61.71
2022-10-09T12:46:10.276Z,61.20
2022-10-09T12:48:58.810Z,62.84
2022-10-09T12:51:42.211Z,62.87
2022-10-09T12:54:34.840Z,62.60
2022-10-09T12:57:24.085Z,63.03
2022-10-09T13:00:21.774Z,60.86
2022-10-09T13:03:04.256Z,61.51
2022-10-09T13:05:52.847Z,62.30
2022-10-09T13:08:39.127Z,62.51
2022-10-09T13:11:33.850Z,62.24
2022-10-09T13:14:41.158Z,63.02
2022-10-09T13:17:41.776Z,63.01
2022-10-09T13:20:24.116Z,61.70
2022-10-09T13:23:15.102Z,62.32
2022-10-09T13:25:59.968Z,62.46
2022-10-09T13:28:51.802Z,63.45
2022-10-09T13:31:34.889Z,63.38
2022-10-09T13:34:23.839Z,62.75
2022-10-09T13:37:06.111Z,63.19
2022-10-09T13:39:55.767Z,63.33
2022-10-09T13:42:43.105Z,63.50
2022-10-09T13:45:31.768Z,63.62
2022-10-09T13:48:14.048Z,64.49
2022-10-09T13:51:02.775Z,63.44
2022-10-09T13:53:45.028Z,64.31
2022-10-09T13:56:33.839Z,63.06
2022-10-09T13:59:16.302Z,63.29
2022-10-09T14:02:04.837Z,64.33
2022-10-09T14:04:47.127Z,64.13
2022-10-09T14:07:35.758Z,64.84
2022-10-09T14:10:24.770Z,64.71
2022-10-09T14:13:15.574Z,64.52
2022-10-09T14:15:59.761Z,64.39
2022-10-09T14:18:48.842Z,64.74
2022-10-09T14:21:38.103Z,64.41
2022-10-09T14:24:22.126Z,64.68
2022-10-09T14:27:10.093Z,65.29
2022-10-09T14:29:55.278Z,65.24
2022-10-09T14:32:38.934Z,64.53
2022-10-09T14:35:27.758Z,64.74
2022-10-09T14:38:17.031Z,65.21
2022-10-09T14:40:59.755Z,65.13
2022-10-09T14:43:55.822Z,65.23
2022-10-09T14:46:45.032Z,63.96
2022-10-09T14:49:27.835Z,64.48
2022-10-09T14:52:09.998Z,65.09
2022-10-09T14:54:58.781Z,65.67
2022-10-09T14:57:47.821Z,65.54
2022-10-09T15:00:30.203Z,66.16
2022-10-09T15:03:18.826Z,66.19
2022-10-09T15:06:13.350Z,65.56
2022-10-09T15:09:09.789Z,65.81
2022-10-09T15:11:59.802Z,65.83
2022-10-09T15:14:49.230Z,65.06
2022-10-09T15:17:30.762Z,65.88
2022-10-09T15:20:19.039Z,64.79
2022-10-09T15:23:07.811Z,64.22
2022-10-09T15:25:57.074Z,64.93
2022-10-09T15:28:46.820Z,63.46
2022-10-09T15:31:33.250Z,63.79
2022-10-09T15:34:26.121Z,63.96
2022-10-09T15:37:08.140Z,64.38
2022-10-09T15:39:56.817Z,63.55
2022-10-09T15:42:42.401Z,63.90
2022-10-09T15:45:31.771Z,64.91
2022-10-09T15:48:14.088Z,65.06
2022-10-09T15:51:02.843Z,65.26
2022-10-09T15:53:45.209Z,64.91
2022-10-09T15:56:38.785Z,65.29
2022-10-09T15:59:29.812Z,64.56
2022-10-09T16:02:20.192Z,63.96
2022-10-09T16:05:02.843Z,65.25
2022-10-09T16:07:51.104Z,65.39
2022-10-09T16:10:33.902Z,64.59
2022-10-09T16:13:16.347Z,65.06
2022-10-09T16:16:04.767Z,64.84
2022-10-09T16:18:47.496Z,64.99
2022-10-09T16:21:39.766Z,65.11
2022-10-09T16:24:28.825Z,64.73
2022-10-09T16:27:11.084Z,64.68
2022-10-09T16:29:59.809Z,64.54
2022-10-09T16:32:42.137Z,65.09
2022-10-09T16:35:31.082Z,65.23
2022-10-09T16:38:13.046Z,65.44
2022-10-09T16:41:02.514Z,64.73
2022-10-09T16:43:47.164Z,65.09
2022-10-09T16:46:39.890Z,65.64
2022-10-09T16:49:25.262Z,65.93
2022-10-09T16:52:13.848Z,65.62
2022-10-09T16:55:00.139Z,66.13
2022-10-09T16:57:49.996Z,65.61
2022-10-09T17:00:32.209Z,66.84
2022-10-09T17:03:20.875Z,66.04
2022-10-09T17:06:03.196Z,66.01
2022-10-09T17:08:51.839Z,65.86
2022-10-09T17:11:42.805Z,65.83
2022-10-09T17:14:31.830Z,65.34
2022-10-09T17:17:17.538Z,65.04
2022-10-09T17:20:06.771Z,65.69
2022-10-09T17:23:01.822Z,65.23
2022-10-09T17:25:45.190Z,65.90
2022-10-09T17:28:33.838Z,66.12
2022-10-09T17:31:26.168Z,66.03
2022-10-09T17:34:11.833Z,65.71
2022-10-09T17:37:01.215Z,65.41
2022-10-09T17:39:47.433Z,66.23
2022-10-09T17:42:38.567Z,65.89
2022-10-09T17:45:21.881Z,66.20
2022-10-09T17:48:11.223Z,66.67
2022-10-09T17:51:04.771Z,65.72
2022-10-09T17:53:54.230Z,66.45
2022-10-09T17:56:37.764Z,65.76
2022-10-09T17:59:27.347Z,66.35
2022-10-09T18:02:09.845Z,66.39
2022-10-09T18:04:59.444Z,66.52
2022-10-09T18:07:42.792Z,66.30
2022-10-09T18:10:32.113Z,66.03
2022-10-09T18:13:15.753Z,66.36
2022-10-09T18:16:07.764Z,65.97
2022-10-09T18:18:51.131Z,66.38
2022-10-09T18:21:39.762Z,66.70
2022-10-09T18:24:23.175Z,66.36
2022-10-09T18:27:11.826Z,66.73
2022-10-09T18:29:54.146Z,66.61
2022-10-09T18:32:42.834Z,66.76
2022-10-09T18:35:26.568Z,66.17
2022-10-09T18:38:17.826Z,66.62
2022-10-09T18:41:00.600Z,66.34
2022-10-09T18:43:50.107Z,66.16
2022-10-09T18:46:35.131Z,66.25
2022-10-09T18:49:26.769Z,66.27
2022-10-09T18:52:11.155Z,66.35
2022-10-09T18:55:01.810Z,66.24
2022-10-09T18:57:47.102Z,66.43
2022-10-09T19:00:35.837Z,65.87
2022-10-09T19:03:24.762Z,66.92
2022-10-09T19:06:13.743Z,66.36
2022-10-09T19:09:05.824Z,65.08
2022-10-09T19:11:48.184Z,65.33
2022-10-09T19:14:36.852Z,65.80
2022-10-09T19:17:26.180Z,66.40
2022-10-09T19:20:08.718Z,66.75
2022-10-09T19:22:51.064Z,65.74
2022-10-09T19:25:39.822Z,66.22
2022-10-09T19:28:24.113Z,67.15
2022-10-09T19:31:14.820Z,67.12
2022-10-09T19:34:03.066Z,66.32
2022-10-09T19:36:45.748Z,66.50
2022-10-09T19:39:28.949Z,66.05
2022-10-09T19:42:17.817Z,66.82
2022-10-09T19:45:06.057Z,67.18
2022-10-09T19:47:53.515Z,66.99
2022-10-09T19:50:43.112Z,67.00
2022-10-09T19:53:25.123Z,67.04
2022-10-09T19:56:21.728Z,67.24
2022-10-09T19:59:05.199Z,67.69
2022-10-09T20:01:57.394Z,67.46
2022-10-09T20:04:39.739Z,67.64
2022-10-09T20:07:22.052Z,67.03
2022-10-09T20:10:10.735Z,67.79
2022-10-09T20:12:59.819Z,67.41
2022-10-09T20:15:50.041Z,67.57
2022-10-09T20:18:33.752Z,67.62
2022-10-09T20:21:19.211Z,68.52
2022-10-09T20:24:10.815Z,68.64
2022-10-09T20:26:59.062Z,68.97
2022-10-09T20:29:41.840Z,69.21
2022-10-09T20:32:31.435Z,68.86
2022-10-09T20:35:14.826Z,68.74
2022-10-09T20:38:03.037Z,69.98
2022-10-09T20:40:44.767Z,69.88
2022-10-09T20:43:26.927Z,68.80
2022-10-09T20:46:23.758Z,69.73
2022-10-09T20:49:12.719Z,69.49
2022-10-09T20:52:01.738Z,69.19
2022-10-09T20:54:43.948Z,70.84
2022-10-09T20:57:32.823Z,71.36
2022-10-09T21:00:22.020Z,70.48
2022-10-09T21:03:05.478Z,69.67
2022-10-09T21:05:57.051Z,68.85
2022-10-09T21:08:39.730Z,68.99
2022-10-09T21:11:22.280Z,69.70
2022-10-09T21:14:10.730Z,69.90
2022-10-09T21:16:59.008Z,70.97
2022-10-09T21:19:40.804Z,71.85
2022-10-09T21:22:30.069Z,72.28
2022-10-09T21:25:12.749Z,72.17
2022-10-09T21:28:01.156Z,72.12
2022-10-09T21:30:55.769Z,72.74
2022-10-09T21:33:38.413Z,72.94
2022-10-09T21:39:54.533Z,72.44
2022-10-09T21:42:39.149Z,73.45
2022-10-09T21:45:27.044Z,72.67
2022-10-09T21:48:08.713Z,72.90
2022-10-09T21:50:51.262Z,73.01
2022-10-09T21:53:40.051Z,71.93
2022-10-09T21:56:29.075Z,72.05
2022-10-09T21:59:11.802Z,72.74
2022-10-09T22:02:00.085Z,72.89
2022-10-09T22:04:59.736Z,73.33
2022-10-09T22:07:48.642Z,73.54
2022-10-09T22:10:37.668Z,73.19
2022-10-09T22:13:27.732Z,72.65
2022-10-09T22:16:18.642Z,72.21
2022-10-09T22:19:08.796Z,72.25
2022-10-09T22:21:57.991Z,72.54
2022-10-09T22:24:40.720Z,72.72
2022-10-09T22:27:29.731Z,73.44
2022-10-09T22:30:19.750Z,72.54
2022-10-09T22:33:14.579Z,73.82
2022-10-09T22:36:23.706Z,72.46
2022-10-09T22:39:08.123Z,74.26
2022-10-09T22:41:56.724Z,74.46
2022-10-09T22:44:39.027Z,74.46
2022-10-09T22:47:27.754Z,73.27
2022-10-09T22:50:10.066Z,74.05
2022-10-09T22:52:58.797Z,74.74
2022-10-09T22:55:40.990Z,74.13
2022-10-09T22:58:30.159Z,73.60
2022-10-09T23:01:26.101Z,72.89
2022-10-09T23:04:18.738Z,72.07
2022-10-09T23:07:04.052Z,73.36
2022-10-09T23:09:52.799Z,72.36
2022-10-09T23:12:35.006Z,71.88
2022-10-09T23:15:23.768Z,71.95
2022-10-09T23:18:06.018Z,71.84
2022-10-09T23:20:54.782Z,72.31
2022-10-09T23:23:37.012Z,72.05
2022-10-09T23:26:28.704Z,73.17
2022-10-09T23:29:16.510Z,72.78
2022-10-09T23:32:12.726Z,72.63
2022-10-09T23:35:01.762Z,72.17
2022-10-09T23:37:44.031Z,72.07
2022-10-09T23:40:32.761Z,72.73
2022-10-09T23:43:15.038Z,72.63
2022-10-09T23:46:05.725Z,74.09
2022-10-09T23:48:54.645Z,72.98
2022-10-09T23:51:43.769Z,72.70
2022-10-09T23:54:27.004Z,72.60
2022-10-09T23:57:15.725Z,72.27
2022-10-09T23:59:58.033Z,72.17
